Riverdale, Illinois
Current Conditions -  °F | °C
As of 8:55 PM on Thursday 27 Nov 2014 (Local Time) from KIGQ Reporting Station
Overcast Overcast  
Wind Chill: 13°   Ceiling: 3200
Heat Index: 22°   Visibility: 10mi
Dew Point: 13°   Wind: 8mph
Humidity: 66%   Direction: 350°N
Pressure: 30.4"   Gusts: NA
Location:  41.63°N, 87.63°W
Report Text: KIGQ 280255Z AUTO 35007KT 10SM OVC032 M05/M11 A3040 RMK AO2 T10531108
Loading
Personal Weather Stations






























Interactive Weather Map New forecast layout! Learn more

10-Day Weather Forecast

Advertisements
Track Severe Weather on mobile